Terminal Aerodrome Forecast
Issued by NWS

Home | Current Version | Previous Version | Text Only | Print | Product List | Glossary On
Versions: 1 2 3 4 5 6 7 8 9 10 11 12 13 14 15 16 17 18 19 20 21 22 23 24 25 26 27 28 29
000
FTUS41 KGYX 251739 AAA
TAFLEB
TAF AMD
KLEB 251739Z 2518/2618 18003KT P6SM SCT025 BKN040 OVC050
     FM260200 00000KT 1SM BR SCT050
     FM260700 00000KT 1/4SM FG BKN001
     FM261200 00000KT P6SM OVC003
     FM261300 00000KT P6SM BKN250=

USA.gov is the U.S. government's official web portal to all federal, state and local government web resources and services.